createdAt,value
2023-05-20T00:01:13.328Z,3.00
2023-05-20T00:03:20.395Z,3.28
2023-05-20T00:05:25.926Z,3.05
2023-05-20T00:07:35.014Z,3.08
2023-05-20T00:09:43.233Z,2.83
2023-05-20T00:11:58.268Z,3.30
2023-05-20T00:14:06.163Z,2.85
2023-05-20T00:16:15.700Z,2.83
2023-05-20T00:18:21.368Z,3.00
2023-05-20T00:20:28.780Z,3.20
2023-05-20T00:22:38.498Z,3.38
2023-05-20T00:24:44.121Z,2.92
2023-05-20T00:27:07.077Z,3.22
2023-05-20T00:29:13.050Z,3.45
2023-05-20T00:31:18.822Z,3.28
2023-05-20T00:33:24.292Z,3.05
2023-05-20T00:35:29.897Z,3.45
2023-05-20T00:37:37.913Z,3.40
2023-05-20T00:39:47.457Z,3.08
2023-05-20T00:41:54.305Z,3.53
2023-05-20T00:44:00.626Z,3.10
2023-05-20T00:46:12.854Z,3.08
2023-05-20T00:48:19.589Z,3.60
2023-05-20T00:50:26.801Z,3.28
2023-05-20T00:52:38.122Z,3.50
2023-05-20T00:54:46.104Z,3.42
2023-05-20T00:57:03.302Z,3.58
2023-05-20T01:01:17.816Z,3.10
2023-05-20T01:03:23.603Z,3.83
2023-05-20T01:05:32.679Z,3.38
2023-05-20T01:07:41.445Z,3.28
2023-05-20T01:09:47.862Z,3.50
2023-05-20T01:12:10.434Z,3.67
2023-05-20T01:14:20.892Z,3.58
2023-05-20T01:16:34.308Z,3.33
2023-05-20T01:18:42.155Z,3.70
2023-05-20T01:23:00.619Z,4.97
2023-05-20T01:25:11.053Z,4.20
2023-05-20T01:27:24.915Z,4.70
2023-05-20T01:29:34.902Z,5.07
2023-05-20T01:31:44.320Z,5.53
2023-05-20T01:34:02.208Z,5.63
2023-05-20T01:36:14.165Z,5.93
2023-05-20T01:38:24.522Z,5.05
2023-05-20T01:40:32.351Z,4.82
2023-05-20T01:42:41.797Z,5.07
2023-05-20T01:44:52.138Z,4.95
2023-05-20T01:47:02.991Z,4.43
2023-05-20T01:49:10.761Z,4.82
2023-05-20T01:51:16.928Z,4.22
2023-05-20T01:53:25.347Z,3.92
2023-05-20T01:55:33.702Z,3.90
2023-05-20T01:57:41.705Z,4.18
2023-05-20T02:02:01.515Z,3.58
2023-05-20T02:04:07.440Z,4.03
2023-05-20T02:06:24.846Z,3.72
2023-05-20T02:10:42.347Z,3.67
2023-05-20T02:12:52.604Z,3.80
2023-05-20T02:14:59.056Z,4.00
2023-05-20T02:17:29.201Z,4.38
2023-05-20T02:19:36.937Z,4.45
2023-05-20T02:21:48.010Z,4.80
2023-05-20T02:23:57.615Z,4.28
2023-05-20T02:26:05.813Z,4.13
2023-05-20T02:28:11.429Z,4.45
2023-05-20T02:30:18.896Z,4.50
2023-05-20T02:32:29.008Z,4.13
2023-05-20T02:34:35.564Z,3.92
2023-05-20T02:36:43.877Z,4.53
2023-05-20T02:38:51.646Z,4.80
2023-05-20T02:41:01.461Z,4.13
2023-05-20T02:43:10.117Z,4.18
2023-05-20T02:45:18.253Z,4.30
2023-05-20T02:47:37.339Z,5.13
2023-05-20T02:49:45.192Z,4.10
2023-05-20T02:51:50.703Z,4.60
2023-05-20T02:53:57.030Z,4.53
2023-05-20T02:56:10.802Z,4.85
2023-05-20T02:58:16.277Z,5.10
2023-05-20T03:00:23.813Z,5.10
2023-05-20T03:02:29.684Z,4.75
2023-05-20T03:04:39.221Z,4.45
2023-05-20T03:06:46.682Z,4.35
2023-05-20T03:08:55.917Z,4.50
2023-05-20T03:11:04.974Z,4.63
2023-05-20T03:13:18.887Z,4.80
2023-05-20T03:15:25.349Z,5.05
2023-05-20T03:17:31.059Z,5.28
2023-05-20T03:19:37.066Z,5.10
2023-05-20T03:21:44.340Z,5.10
2023-05-20T03:23:49.804Z,4.60
2023-05-20T03:26:11.007Z,5.68
2023-05-20T03:28:16.970Z,5.10
2023-05-20T03:30:24.019Z,5.90
2023-05-20T03:32:29.814Z,5.45
2023-05-20T03:34:35.578Z,5.85
2023-05-20T03:36:41.759Z,5.72
2023-05-20T03:38:53.663Z,6.40
2023-05-20T03:40:59.423Z,6.07
2023-05-20T03:43:08.433Z,5.90
2023-05-20T03:45:16.012Z,6.30
2023-05-20T03:47:36.943Z,6.65
2023-05-20T03:49:45.614Z,6.78
2023-05-20T03:51:54.355Z,6.28
2023-05-20T03:54:01.534Z,6.05
2023-05-20T03:56:07.507Z,6.55
2023-05-20T03:58:18.506Z,6.25
2023-05-20T04:00:31.316Z,7.05
2023-05-20T04:02:38.291Z,6.55
2023-05-20T04:04:44.728Z,6.32
2023-05-20T04:06:51.691Z,7.00
2023-05-20T04:08:57.353Z,6.55
2023-05-20T04:11:03.180Z,6.72
2023-05-20T04:13:10.477Z,6.47
2023-05-20T04:15:20.105Z,6.65
2023-05-20T04:17:32.829Z,6.40
2023-05-20T04:19:39.949Z,6.35
2023-05-20T04:21:46.596Z,6.88
2023-05-20T04:24:12.786Z,6.97
2023-05-20T04:26:21.072Z,6.20
2023-05-20T04:28:28.302Z,6.35
2023-05-20T04:30:36.717Z,6.40
2023-05-20T04:32:42.391Z,7.10
2023-05-20T04:34:48.885Z,6.97
2023-05-20T04:37:01.478Z,7.30
2023-05-20T04:39:08.959Z,6.88
2023-05-20T04:41:16.115Z,7.18
2023-05-20T04:43:23.582Z,6.68
2023-05-20T04:45:30.532Z,6.95
2023-05-20T04:47:39.350Z,7.75
2023-05-20T04:49:47.170Z,7.40
2023-05-20T04:51:55.612Z,7.43
2023-05-20T04:54:03.960Z,7.78
2023-05-20T04:56:15.497Z,8.20
2023-05-20T04:58:24.452Z,8.43
2023-05-20T05:00:30.600Z,8.18
2023-05-20T05:02:39.085Z,8.57
2023-05-20T05:04:45.166Z,8.02
2023-05-20T05:06:52.981Z,8.80
2023-05-20T05:09:00.976Z,8.20
2023-05-20T05:11:10.607Z,8.60
2023-05-20T05:13:18.991Z,8.82
2023-05-20T05:15:25.265Z,8.80
2023-05-20T05:17:32.735Z,8.70
2023-05-20T05:19:42.282Z,8.02
2023-05-20T05:21:48.188Z,9.20
2023-05-20T05:24:01.312Z,8.90
2023-05-20T05:26:13.661Z,8.85
2023-05-20T05:28:19.701Z,9.15
2023-05-20T05:30:25.947Z,9.25
2023-05-20T05:32:31.743Z,9.48
2023-05-20T05:34:46.843Z,9.40
2023-05-20T05:36:52.989Z,9.73
2023-05-20T05:38:59.047Z,9.60
2023-05-20T05:41:06.170Z,9.98
2023-05-20T05:43:13.162Z,10.18
2023-05-20T05:45:20.578Z,9.52
2023-05-20T05:47:29.901Z,10.07
2023-05-20T05:49:36.037Z,9.65
2023-05-20T05:51:53.391Z,9.90
2023-05-20T05:53:59.490Z,10.55
2023-05-20T05:56:06.974Z,10.20
2023-05-20T05:58:17.779Z,10.30
2023-05-20T06:00:23.910Z,10.35
2023-05-20T06:02:30.171Z,10.63
2023-05-20T06:04:35.942Z,11.07
2023-05-20T06:06:48.563Z,11.25
2023-05-20T06:08:57.251Z,11.10
2023-05-20T06:11:06.231Z,10.07
2023-05-20T06:13:15.804Z,10.95
2023-05-20T06:15:21.520Z,10.85
2023-05-20T06:17:26.975Z,11.20
2023-05-20T06:19:35.937Z,10.65
2023-05-20T06:21:51.538Z,12.18
2023-05-20T06:23:58.134Z,11.02
2023-05-20T06:26:11.374Z,11.90
2023-05-20T06:28:23.482Z,12.07
2023-05-20T06:30:28.968Z,12.25
2023-05-20T06:32:36.826Z,11.88
2023-05-20T06:34:44.122Z,10.95
2023-05-20T06:36:56.727Z,12.40
2023-05-20T06:39:04.380Z,13.07
2023-05-20T06:41:10.110Z,13.15
2023-05-20T06:43:16.063Z,13.45
2023-05-20T06:45:35.355Z,12.52
2023-05-20T06:48:03.520Z,13.32
2023-05-20T06:50:10.055Z,13.13
2023-05-20T06:52:19.865Z,12.45
2023-05-20T06:54:25.414Z,11.57
2023-05-20T06:56:31.160Z,12.85
2023-05-20T06:58:43.788Z,12.95
2023-05-20T07:00:49.988Z,12.27
2023-05-20T07:02:58.469Z,11.70
2023-05-20T07:05:07.001Z,11.55
2023-05-20T07:07:17.373Z,12.43
2023-05-20T07:09:28.802Z,12.25
2023-05-20T07:11:34.335Z,12.07
2023-05-20T07:13:48.206Z,12.02
2023-05-20T07:15:55.363Z,12.35
2023-05-20T07:18:00.853Z,11.98
2023-05-20T07:20:06.779Z,12.68
2023-05-20T07:22:12.304Z,12.02
2023-05-20T07:24:36.110Z,11.70
2023-05-20T07:26:48.859Z,11.60
2023-05-20T07:28:55.117Z,12.02
2023-05-20T07:31:01.411Z,11.80
2023-05-20T07:33:08.468Z,11.77
2023-05-20T07:35:14.448Z,11.50
2023-05-20T07:37:37.321Z,12.13
2023-05-20T07:39:58.954Z,11.73
2023-05-20T07:42:04.653Z,12.68
2023-05-20T07:44:11.507Z,11.95
2023-05-20T07:46:28.121Z,12.02
2023-05-20T07:48:33.849Z,11.95
2023-05-20T07:50:41.105Z,11.35
2023-05-20T07:52:55.880Z,11.65
2023-05-20T07:55:09.482Z,11.95
2023-05-20T07:57:23.572Z,12.02
2023-05-20T07:59:29.952Z,11.55
2023-05-20T08:03:48.041Z,11.07
2023-05-20T08:05:59.078Z,11.32
2023-05-20T08:08:05.563Z,11.63
2023-05-20T08:10:28.812Z,11.60
2023-05-20T08:12:36.253Z,10.77
2023-05-20T08:14:42.000Z,10.38
2023-05-20T08:16:48.914Z,11.00
2023-05-20T08:18:54.720Z,10.38
2023-05-20T08:21:00.762Z,10.80
2023-05-20T08:23:22.561Z,10.75
2023-05-20T08:25:31.869Z,10.88
2023-05-20T08:27:38.080Z,10.00
2023-05-20T08:29:45.296Z,9.98
2023-05-20T08:31:53.226Z,10.30
2023-05-20T08:34:00.765Z,10.82
2023-05-20T08:38:29.197Z,9.65
2023-05-20T08:40:38.551Z,8.88
2023-05-20T08:42:47.978Z,8.45
2023-05-20T08:44:56.732Z,8.02
2023-05-20T08:47:08.002Z,8.73
2023-05-20T08:49:16.275Z,9.38
2023-05-20T08:51:24.990Z,9.43
2023-05-20T08:53:30.481Z,7.65
2023-05-20T08:55:49.545Z,9.10
2023-05-20T08:57:56.653Z,8.18
2023-05-20T09:00:09.079Z,8.55
2023-05-20T09:02:14.957Z,8.50
2023-05-20T09:04:22.323Z,8.13
2023-05-20T09:06:27.806Z,9.38
2023-05-20T09:08:34.491Z,8.55
2023-05-20T09:10:47.457Z,8.23
2023-05-20T09:12:52.936Z,8.10
2023-05-20T09:15:10.185Z,9.98
2023-05-20T09:17:17.884Z,8.90
2023-05-20T09:21:31.685Z,11.18
2023-05-20T09:23:39.674Z,10.00
2023-05-20T09:26:08.595Z,10.18
2023-05-20T09:28:14.185Z,10.38
2023-05-20T09:30:22.834Z,10.32
2023-05-20T09:32:29.209Z,10.50
2023-05-20T09:34:34.854Z,10.43
2023-05-20T09:36:45.562Z,10.05
2023-05-20T09:38:55.357Z,9.95
2023-05-20T09:41:05.155Z,10.05
2023-05-20T09:43:11.660Z,10.57
2023-05-20T09:45:24.836Z,10.90
2023-05-20T09:47:31.751Z,10.75
2023-05-20T09:49:42.325Z,10.50
2023-05-20T09:51:58.511Z,11.35
2023-05-20T09:54:13.168Z,10.40
2023-05-20T09:56:27.207Z,10.18
2023-05-20T09:58:33.125Z,10.98
2023-05-20T10:00:38.881Z,11.07
2023-05-20T10:02:47.439Z,11.13
2023-05-20T10:04:56.228Z,10.55
2023-05-20T10:07:42.421Z,10.32
2023-05-20T10:10:03.468Z,11.32
2023-05-20T10:12:32.660Z,10.27
2023-05-20T10:14:50.821Z,10.90
2023-05-20T10:17:11.523Z,11.32
2023-05-20T10:19:29.162Z,11.23
2023-05-20T10:21:36.288Z,11.45
2023-05-20T10:23:42.836Z,11.32
2023-05-20T10:25:56.052Z,12.48
2023-05-20T10:28:20.277Z,11.90
2023-05-20T10:30:26.501Z,12.75
2023-05-20T10:32:38.663Z,13.15
2023-05-20T10:34:56.175Z,12.00
2023-05-20T10:39:08.634Z,12.57
2023-05-20T10:41:15.656Z,11.85
2023-05-20T10:43:33.259Z,12.50
2023-05-20T10:47:57.505Z,11.10
2023-05-20T10:50:05.063Z,11.23
2023-05-20T10:52:13.490Z,10.98
2023-05-20T10:54:19.266Z,10.95
2023-05-20T10:56:25.775Z,11.13
2023-05-20T10:58:42.099Z,11.90
2023-05-20T11:00:51.257Z,12.65
2023-05-20T11:02:59.117Z,12.27
2023-05-20T11:05:07.908Z,11.95
2023-05-20T11:09:35.837Z,11.00
2023-05-20T11:11:41.688Z,12.30
2023-05-20T11:13:54.929Z,11.60
2023-05-20T11:16:04.933Z,12.07
2023-05-20T11:18:17.043Z,12.50
2023-05-20T11:20:27.745Z,12.70
2023-05-20T11:22:33.205Z,12.45
2023-05-20T11:24:39.038Z,11.63
2023-05-20T11:26:46.797Z,12.18
2023-05-20T11:28:55.002Z,12.63
2023-05-20T11:31:00.540Z,13.32
2023-05-20T11:33:24.316Z,12.77
2023-05-20T11:35:32.343Z,12.73
2023-05-20T11:39:45.054Z,13.45
2023-05-20T11:41:51.153Z,12.48
2023-05-20T11:44:04.153Z,12.23
2023-05-20T11:46:27.728Z,11.73
2023-05-20T11:48:33.648Z,12.15
2023-05-20T11:50:41.130Z,12.13
2023-05-20T11:52:46.740Z,12.55
2023-05-20T11:54:55.655Z,12.77
2023-05-20T11:57:07.410Z,12.77
2023-05-20T11:59:19.273Z,12.30
2023-05-20T12:01:28.315Z,11.90
2023-05-20T12:03:34.418Z,12.35
2023-05-20T12:05:40.414Z,12.10
2023-05-20T12:07:45.987Z,10.80
2023-05-20T12:09:59.992Z,12.00
2023-05-20T12:12:06.301Z,13.55
2023-05-20T12:14:14.529Z,12.80
2023-05-20T12:16:26.523Z,13.23
2023-05-20T12:18:33.940Z,13.88
2023-05-20T12:20:42.235Z,13.55
2023-05-20T12:22:48.149Z,12.73
2023-05-20T12:24:55.475Z,13.15
2023-05-20T12:27:08.034Z,12.75
2023-05-20T12:29:22.568Z,12.50
2023-05-20T12:31:35.157Z,12.85
2023-05-20T12:33:44.676Z,13.60
2023-05-20T12:35:50.229Z,13.15
2023-05-20T12:37:56.715Z,13.55
2023-05-20T12:40:02.190Z,12.73
2023-05-20T12:42:08.155Z,12.23
2023-05-20T12:44:30.731Z,11.82
2023-05-20T12:46:36.253Z,12.18
2023-05-20T12:48:42.911Z,12.70
2023-05-20T12:50:50.316Z,12.32
2023-05-20T12:52:58.086Z,12.27
2023-05-20T12:55:03.955Z,11.90
2023-05-20T12:57:14.653Z,11.43
2023-05-20T12:59:23.460Z,10.82
2023-05-20T13:01:34.557Z,11.27
2023-05-20T13:03:40.434Z,10.48
2023-05-20T13:05:46.334Z,10.23
2023-05-20T13:07:51.999Z,10.32
2023-05-20T13:09:57.466Z,11.52
2023-05-20T13:12:07.082Z,10.75
2023-05-20T13:14:12.598Z,10.43
2023-05-20T13:16:27.322Z,10.98
2023-05-20T13:18:33.153Z,10.18
2023-05-20T13:20:40.704Z,9.88
2023-05-20T13:22:46.307Z,10.23
2023-05-20T13:24:53.650Z,11.07
2023-05-20T13:27:16.628Z,9.55
2023-05-20T13:29:22.112Z,10.18
2023-05-20T13:31:30.527Z,9.88
2023-05-20T13:33:36.972Z,9.80
2023-05-20T13:35:42.403Z,10.70
2023-05-20T13:37:48.131Z,10.02
2023-05-20T13:39:56.933Z,10.38
2023-05-20T13:42:02.769Z,10.45
2023-05-20T13:44:09.385Z,11.57
2023-05-20T13:46:36.999Z,11.40
2023-05-20T13:48:42.428Z,11.57
2023-05-20T13:50:49.540Z,11.93
2023-05-20T13:52:57.451Z,11.48
2023-05-20T13:55:03.432Z,12.50
2023-05-20T13:57:18.837Z,11.68
2023-05-20T13:59:24.242Z,11.75
2023-05-20T14:01:30.696Z,11.52
2023-05-20T14:03:41.010Z,10.40
2023-05-20T14:05:52.225Z,11.40
2023-05-20T14:07:58.041Z,12.07
2023-05-20T14:10:04.701Z,12.77
2023-05-20T14:12:11.083Z,11.95
2023-05-20T14:14:17.094Z,12.15
2023-05-20T14:16:46.256Z,12.30
2023-05-20T14:18:54.605Z,12.00
2023-05-20T14:21:00.110Z,12.60
2023-05-20T14:23:11.196Z,12.40
2023-05-20T14:25:24.767Z,11.73
2023-05-20T14:27:37.256Z,12.15
2023-05-20T14:29:42.694Z,11.85
2023-05-20T14:31:48.221Z,11.15
2023-05-20T14:33:56.276Z,11.50
2023-05-20T14:36:07.701Z,11.45
2023-05-20T14:38:13.130Z,11.65
2023-05-20T14:40:19.074Z,11.60
2023-05-20T14:42:28.901Z,11.65
2023-05-20T14:44:34.417Z,11.15
2023-05-20T14:46:39.885Z,12.38
2023-05-20T14:48:51.642Z,11.82
2023-05-20T14:51:00.059Z,11.98
2023-05-20T14:53:05.726Z,12.20
2023-05-20T14:55:11.646Z,11.55
2023-05-20T14:57:17.184Z,12.45
2023-05-20T14:59:23.181Z,12.05
2023-05-20T15:01:30.080Z,12.05
2023-05-20T15:03:36.261Z,11.32
2023-05-20T15:05:42.438Z,12.30
2023-05-20T15:07:51.505Z,12.10
2023-05-20T15:09:56.982Z,11.57
2023-05-20T15:12:18.158Z,12.63
2023-05-20T15:14:25.916Z,12.65
2023-05-20T15:16:31.450Z,12.48
2023-05-20T15:18:36.875Z,11.57
2023-05-20T15:20:50.024Z,13.02
2023-05-20T15:23:00.300Z,13.02
2023-05-20T15:25:07.843Z,12.50
2023-05-20T15:27:22.150Z,13.43
2023-05-20T15:29:27.882Z,13.00
2023-05-20T15:31:35.983Z,13.43
2023-05-20T15:33:41.507Z,13.15
2023-05-20T15:35:54.479Z,13.40
2023-05-20T15:38:02.569Z,13.18
2023-05-20T15:40:09.619Z,13.85
2023-05-20T15:42:18.811Z,12.73
2023-05-20T15:44:24.631Z,14.32
2023-05-20T15:46:38.082Z,13.48
2023-05-20T15:48:44.576Z,14.05
2023-05-20T15:50:50.497Z,14.55
2023-05-20T15:52:56.658Z,14.02
2023-05-20T15:55:18.141Z,14.15
2023-05-20T15:57:24.319Z,13.50
2023-05-20T15:59:32.281Z,13.93
2023-05-20T16:01:42.328Z,15.05
2023-05-20T16:03:48.109Z,14.43
2023-05-20T16:06:03.233Z,14.02
2023-05-20T16:08:09.522Z,15.32
2023-05-20T16:10:18.880Z,14.27
2023-05-20T16:12:24.512Z,14.70
2023-05-20T16:14:30.160Z,15.13
2023-05-20T16:16:36.291Z,14.77
2023-05-20T16:18:44.890Z,14.43
2023-05-20T16:21:09.489Z,13.25
2023-05-20T16:23:14.887Z,14.27
2023-05-20T16:25:22.912Z,13.68
2023-05-20T16:27:28.315Z,14.70
2023-05-20T16:29:33.691Z,14.65
2023-05-20T16:31:39.340Z,14.02
2023-05-20T16:33:48.859Z,14.65
2023-05-20T16:35:56.205Z,13.90
2023-05-20T16:38:01.739Z,13.77
2023-05-20T16:40:09.805Z,13.05
2023-05-20T16:42:18.127Z,13.52
2023-05-20T16:44:23.520Z,13.95
2023-05-20T16:46:29.099Z,13.82
2023-05-20T16:48:48.383Z,14.50
2023-05-20T16:50:53.997Z,13.80
2023-05-20T16:53:00.042Z,15.20
2023-05-20T16:55:08.105Z,13.88
2023-05-20T16:57:22.502Z,13.68
2023-05-20T16:59:30.880Z,13.52
2023-05-20T17:01:37.013Z,14.27
2023-05-20T17:03:42.858Z,14.27
2023-05-20T17:06:12.702Z,14.15
2023-05-20T17:08:18.476Z,13.63
2023-05-20T17:10:24.377Z,14.30
2023-05-20T17:12:50.326Z,13.63
2023-05-20T17:15:01.044Z,13.88
2023-05-20T17:17:21.047Z,13.52
2023-05-20T17:19:31.937Z,14.30
2023-05-20T17:21:39.113Z,14.10
2023-05-20T17:23:44.702Z,14.60
2023-05-20T17:25:57.486Z,13.95
2023-05-20T17:28:05.644Z,14.02
2023-05-20T17:30:12.155Z,13.00
2023-05-20T17:32:17.613Z,13.37
2023-05-20T17:34:23.041Z,14.63
2023-05-20T17:36:28.757Z,13.88
2023-05-20T17:38:38.485Z,14.48
2023-05-20T17:40:45.291Z,14.23
2023-05-20T17:42:51.559Z,14.30
2023-05-20T17:45:00.578Z,14.10
2023-05-20T17:47:19.124Z,14.27
2023-05-20T17:49:27.632Z,14.05
2023-05-20T17:51:33.166Z,14.75
2023-05-20T17:53:40.805Z,14.75
2023-05-20T17:56:02.982Z,14.63
2023-05-20T17:58:08.953Z,16.15
2023-05-20T18:00:21.536Z,15.52
2023-05-20T18:02:27.197Z,15.07
2023-05-20T18:04:36.766Z,15.02
2023-05-20T18:06:42.996Z,14.13
2023-05-20T18:08:48.947Z,14.38
2023-05-20T18:10:55.618Z,14.45
2023-05-20T18:13:05.953Z,16.20
2023-05-20T18:15:28.684Z,14.90
2023-05-20T18:17:40.553Z,14.68
2023-05-20T18:19:49.143Z,14.75
2023-05-20T18:21:54.600Z,15.68
2023-05-20T18:24:04.665Z,15.55
2023-05-20T18:26:28.839Z,15.20
2023-05-20T18:28:34.279Z,15.02
2023-05-20T18:30:43.585Z,15.00
2023-05-20T18:32:57.264Z,16.55
2023-05-20T18:35:07.179Z,15.43
2023-05-20T18:37:24.669Z,15.23
2023-05-20T18:39:30.797Z,14.70
2023-05-20T18:41:46.689Z,15.43
2023-05-20T18:43:53.485Z,14.63
2023-05-20T18:46:11.949Z,14.93
2023-05-20T18:48:26.250Z,14.20
2023-05-20T18:50:34.180Z,15.48
2023-05-20T18:52:40.973Z,14.95
2023-05-20T18:54:46.887Z,16.02
2023-05-20T18:57:03.794Z,14.27
2023-05-20T18:59:10.746Z,14.32
2023-05-20T19:01:23.608Z,14.95
2023-05-20T19:03:30.581Z,14.95
2023-05-20T19:05:36.290Z,14.27
2023-05-20T19:07:42.428Z,14.20
2023-05-20T19:09:58.692Z,14.80
2023-05-20T19:12:05.119Z,14.20
2023-05-20T19:14:11.590Z,14.55
2023-05-20T19:16:26.388Z,14.63
2023-05-20T19:18:31.825Z,15.93
2023-05-20T19:20:37.516Z,14.43
2023-05-20T19:22:52.467Z,14.90
2023-05-20T19:24:57.945Z,15.18
2023-05-20T19:27:09.389Z,15.65
2023-05-20T19:29:15.488Z,14.80
2023-05-20T19:31:23.898Z,14.10
2023-05-20T19:33:30.886Z,15.35
2023-05-20T19:35:36.920Z,15.40
2023-05-20T19:37:42.752Z,15.18
2023-05-20T19:40:00.649Z,14.80
2023-05-20T19:42:07.762Z,14.52
2023-05-20T19:44:13.622Z,13.68
2023-05-20T19:46:28.940Z,15.88
2023-05-20T19:48:34.470Z,15.98
2023-05-20T19:50:41.098Z,15.20
2023-05-20T19:52:47.070Z,14.95
2023-05-20T19:54:54.964Z,16.05
2023-05-20T19:57:07.523Z,15.45
2023-05-20T19:59:14.195Z,15.52
2023-05-20T20:01:21.513Z,16.33
2023-05-20T20:03:30.758Z,15.77
2023-05-20T20:05:36.757Z,15.85
2023-05-20T20:07:42.542Z,15.45
2023-05-20T20:09:49.202Z,16.48
2023-05-20T20:12:02.801Z,16.65
2023-05-20T20:14:08.224Z,16.58
2023-05-20T20:16:43.315Z,16.92
2023-05-20T20:18:51.326Z,16.38
2023-05-20T20:21:00.545Z,16.50
2023-05-20T20:23:06.147Z,17.27
2023-05-20T20:25:13.928Z,17.00
2023-05-20T20:27:33.187Z,16.55
2023-05-20T20:29:43.516Z,17.92
2023-05-20T20:31:49.293Z,17.83
2023-05-20T20:33:59.999Z,17.23
2023-05-20T20:36:12.772Z,16.88
2023-05-20T20:38:18.578Z,17.48
2023-05-20T20:40:24.103Z,16.75
2023-05-20T20:42:29.535Z,17.42
2023-05-20T20:44:37.075Z,17.02
2023-05-20T20:46:51.436Z,17.70
2023-05-20T20:48:59.584Z,17.63
2023-05-20T20:51:06.149Z,16.92
2023-05-20T20:53:13.271Z,17.55
2023-05-20T20:55:21.280Z,17.88
2023-05-20T20:57:26.933Z,17.80
2023-05-20T20:59:32.411Z,17.38
2023-05-20T21:01:47.248Z,17.88
2023-05-20T21:03:55.940Z,18.50
2023-05-20T21:06:19.788Z,18.13
2023-05-20T21:08:27.961Z,18.50
2023-05-20T21:10:34.598Z,18.58
2023-05-20T21:12:41.030Z,17.08
2023-05-20T21:14:47.158Z,17.75
2023-05-20T21:17:09.480Z,18.17
2023-05-20T21:19:17.486Z,18.83
2023-05-20T21:21:25.680Z,18.52
2023-05-20T21:23:31.432Z,19.25
2023-05-20T21:25:37.388Z,18.00
2023-05-20T21:27:43.865Z,18.17
2023-05-20T21:29:51.128Z,19.67
2023-05-20T21:32:08.463Z,18.55
2023-05-20T21:34:26.321Z,19.33
2023-05-20T21:36:34.740Z,18.23
2023-05-20T21:38:43.070Z,19.35
2023-05-20T21:40:49.702Z,19.50
2023-05-20T21:42:55.138Z,19.05
2023-05-20T21:45:00.664Z,19.25
2023-05-20T21:47:21.653Z,18.15
2023-05-20T21:49:27.328Z,18.80
2023-05-20T21:51:35.327Z,19.75
2023-05-20T21:53:45.137Z,18.52
2023-05-20T21:56:10.526Z,18.13
2023-05-20T21:58:16.404Z,18.55
2023-05-20T22:00:22.227Z,18.60
2023-05-20T22:02:27.697Z,18.67
2023-05-20T22:04:33.565Z,17.90
2023-05-20T22:06:59.929Z,18.50
2023-05-20T22:09:06.814Z,18.50
2023-05-20T22:11:12.475Z,18.08
2023-05-20T22:13:23.976Z,17.52
2023-05-20T22:15:37.236Z,18.35
2023-05-20T22:17:52.287Z,17.58
2023-05-20T22:20:12.757Z,17.88
2023-05-20T22:22:26.067Z,18.27
2023-05-20T22:24:33.647Z,18.38
2023-05-20T22:26:42.762Z,17.35
2023-05-20T22:28:50.715Z,17.83
2023-05-20T22:31:14.678Z,18.30
2023-05-20T22:33:23.064Z,19.35
2023-05-20T22:35:28.814Z,18.95
2023-05-20T22:37:36.929Z,17.50
2023-05-20T22:39:42.819Z,16.63
2023-05-20T22:41:48.274Z,18.63
2023-05-20T22:43:56.879Z,17.70
2023-05-20T22:46:09.999Z,17.75
2023-05-20T22:48:15.817Z,18.30
2023-05-20T22:50:21.208Z,18.50
2023-05-20T22:52:29.872Z,18.38
2023-05-20T22:54:37.925Z,18.10
2023-05-20T22:56:44.588Z,18.48
2023-05-20T22:58:51.434Z,19.02
2023-05-20T23:01:37.044Z,18.90
2023-05-20T23:03:44.264Z,19.23
2023-05-20T23:05:51.511Z,18.42
2023-05-20T23:07:57.068Z,17.85
2023-05-20T23:10:05.264Z,17.80
2023-05-20T23:12:11.355Z,19.10
2023-05-20T23:14:46.401Z,18.63
2023-05-20T23:16:52.314Z,19.77
2023-05-20T23:19:04.529Z,18.23
2023-05-20T23:21:11.740Z,18.60
2023-05-20T23:23:25.126Z,19.35
2023-05-20T23:25:45.034Z,18.80
2023-05-20T23:27:52.189Z,19.13
2023-05-20T23:29:58.490Z,18.67
2023-05-20T23:32:03.911Z,19.85
2023-05-20T23:34:09.466Z,19.30
2023-05-20T23:36:14.932Z,19.23
2023-05-20T23:38:35.500Z,19.02
2023-05-20T23:40:43.906Z,19.48
2023-05-20T23:42:49.889Z,18.65
2023-05-20T23:44:55.259Z,18.75
2023-05-20T23:47:08.338Z,19.55
2023-05-20T23:49:18.515Z,20.08
2023-05-20T23:51:23.960Z,18.92
2023-05-20T23:53:29.790Z,18.27
2023-05-20T23:55:36.059Z,19.17
2023-05-20T23:57:55.226Z,19.63
